createdAt,value
2023-02-11T00:01:25.389Z,42.43
2023-02-11T00:03:54.830Z,37.27
2023-02-11T00:06:27.179Z,41.53
2023-02-11T00:08:57.623Z,39.80
2023-02-11T00:11:30.390Z,40.77
2023-02-11T00:14:00.229Z,40.20
2023-02-11T00:16:31.226Z,44.27
2023-02-11T00:19:00.574Z,37.83
2023-02-11T00:21:29.190Z,39.70
2023-02-11T00:24:02.363Z,34.73
2023-02-11T00:26:34.608Z,40.10
2023-02-11T00:29:04.217Z,43.10
2023-02-11T00:31:33.459Z,44.30
2023-02-11T00:34:02.691Z,43.93
2023-02-11T00:36:31.497Z,44.50
2023-02-11T00:39:00.259Z,44.47
2023-02-11T00:41:28.720Z,44.50
2023-02-11T00:43:58.670Z,43.57
2023-02-11T00:46:27.175Z,41.53
2023-02-11T00:48:58.031Z,42.83
2023-02-11T00:51:27.469Z,39.97
2023-02-11T00:53:56.761Z,42.53
2023-02-11T00:56:25.217Z,41.03
2023-02-11T00:58:54.044Z,40.93
2023-02-11T01:01:24.039Z,39.73
2023-02-11T01:03:52.478Z,39.33
2023-02-11T01:06:21.916Z,37.83
2023-02-11T01:08:51.962Z,36.70
2023-02-11T01:11:22.565Z,39.33
2023-02-11T01:13:51.610Z,41.50
2023-02-11T01:16:22.194Z,39.80
2023-02-11T01:18:52.335Z,36.83
2023-02-11T01:21:21.288Z,38.17
2023-02-11T01:23:49.687Z,39.07
2023-02-11T01:26:18.282Z,39.90
2023-02-11T01:28:47.078Z,41.30
2023-02-11T01:31:15.923Z,37.13
2023-02-11T01:33:44.354Z,44.23
2023-02-11T01:36:15.492Z,37.53
2023-02-11T01:38:44.689Z,35.17
2023-02-11T01:41:17.627Z,33.30
2023-02-11T01:43:49.309Z,35.03
2023-02-11T01:46:36.650Z,35.53
2023-02-11T01:49:08.663Z,34.70
2023-02-11T01:51:41.826Z,33.13
2023-02-11T01:54:31.025Z,37.00
2023-02-11T01:57:18.753Z,34.57
2023-02-11T01:59:55.481Z,36.30
2023-02-11T02:02:27.586Z,37.33
2023-02-11T02:05:01.979Z,35.70
2023-02-11T02:07:35.716Z,36.80
2023-02-11T02:10:08.672Z,35.07
2023-02-11T02:12:37.063Z,36.33
2023-02-11T02:15:25.637Z,34.10
2023-02-11T02:18:00.322Z,36.10
2023-02-11T02:21:10.526Z,36.13
2023-02-11T02:23:57.063Z,37.03
2023-02-11T02:26:51.026Z,45.07
2023-02-11T02:29:38.938Z,52.10
2023-02-11T02:32:32.231Z,53.47
2023-02-11T02:35:11.080Z,50.43
2023-02-11T02:37:45.779Z,53.53
2023-02-11T02:40:18.283Z,53.50
2023-02-11T02:42:48.969Z,53.37
2023-02-11T02:45:18.806Z,53.80
2023-02-11T02:47:48.575Z,58.40
2023-02-11T02:50:21.805Z,47.93
2023-02-11T02:53:02.016Z,44.40
2023-02-11T02:55:56.085Z,39.13
2023-02-11T02:58:54.083Z,39.40
2023-02-11T03:01:31.536Z,36.20
2023-02-11T03:04:11.066Z,40.07
2023-02-11T03:06:46.974Z,38.40
2023-02-11T03:09:22.470Z,37.37
2023-02-11T03:11:51.237Z,35.20
2023-02-11T03:14:21.140Z,34.40
2023-02-11T03:16:52.987Z,35.47
2023-02-11T03:19:27.637Z,36.77
2023-02-11T03:21:57.405Z,32.57
2023-02-11T03:24:30.601Z,31.93
2023-02-11T03:27:02.644Z,32.20
2023-02-11T03:29:37.716Z,35.60
2023-02-11T03:32:16.342Z,35.67
2023-02-11T03:34:51.600Z,36.80
2023-02-11T03:37:26.374Z,33.53
2023-02-11T03:39:58.244Z,33.37
2023-02-11T03:42:36.990Z,30.43
2023-02-11T03:45:09.927Z,35.17
2023-02-11T03:47:42.727Z,39.57
2023-02-11T03:50:15.864Z,44.87
2023-02-11T03:52:46.344Z,41.33
2023-02-11T03:55:18.210Z,42.20
2023-02-11T03:57:47.502Z,39.37
2023-02-11T04:00:16.786Z,38.47
2023-02-11T04:02:45.826Z,37.67
2023-02-11T04:05:17.783Z,37.20
2023-02-11T04:07:46.311Z,37.23
2023-02-11T04:10:14.834Z,37.03
2023-02-11T04:12:43.756Z,33.23
2023-02-11T04:15:12.247Z,35.63
2023-02-11T04:17:40.655Z,33.40
2023-02-11T04:20:10.346Z,36.23
2023-02-11T04:22:40.694Z,32.57
2023-02-11T04:25:10.650Z,35.03
2023-02-11T04:27:39.225Z,36.50
2023-02-11T04:30:10.040Z,34.30
2023-02-11T04:32:38.731Z,33.97
2023-02-11T04:35:08.202Z,35.77
2023-02-11T04:37:37.125Z,34.07
2023-02-11T04:40:08.165Z,32.33
2023-02-11T04:42:36.573Z,33.23
2023-02-11T04:45:07.341Z,36.20
2023-02-11T04:47:36.362Z,33.17
2023-02-11T04:50:05.270Z,34.10
2023-02-11T04:52:34.011Z,35.63
2023-02-11T04:55:02.298Z,33.37
2023-02-11T04:57:32.137Z,34.73
2023-02-11T05:00:00.597Z,35.03
2023-02-11T05:02:29.585Z,36.73
2023-02-11T05:04:58.057Z,33.17
2023-02-11T05:07:26.881Z,35.87
2023-02-11T05:09:55.134Z,34.43
2023-02-11T05:12:23.775Z,33.17
2023-02-11T05:14:53.606Z,32.93
2023-02-11T05:17:21.941Z,34.20
2023-02-11T05:19:50.284Z,33.00
2023-02-11T05:22:18.774Z,33.57
2023-02-11T05:24:47.162Z,37.63
2023-02-11T05:27:15.777Z,35.97
2023-02-11T05:29:43.982Z,35.43
2023-02-11T05:32:13.593Z,33.50
2023-02-11T05:34:41.901Z,38.00
2023-02-11T05:37:10.372Z,33.43
2023-02-11T05:39:39.092Z,32.67
2023-02-11T05:42:08.071Z,35.63
2023-02-11T05:44:36.959Z,37.97
2023-02-11T05:47:08.970Z,33.13
2023-02-11T05:49:38.728Z,31.50
2023-02-11T05:52:07.415Z,32.33
2023-02-11T05:54:35.894Z,32.30
2023-02-11T05:57:04.318Z,33.13
2023-02-11T05:59:33.047Z,35.33
2023-02-11T06:02:02.426Z,34.13
2023-02-11T06:04:31.846Z,33.13
2023-02-11T06:07:01.692Z,31.83
2023-02-11T06:09:30.358Z,32.43
2023-02-11T06:11:58.717Z,31.53
2023-02-11T06:14:27.083Z,29.80
2023-02-11T06:16:55.482Z,32.67
2023-02-11T06:19:24.169Z,32.07
2023-02-11T06:21:52.669Z,29.70
2023-02-11T06:24:44.330Z,37.20
2023-02-11T06:27:11.260Z,34.83
2023-02-11T06:29:40.040Z,33.40
2023-02-11T06:32:15.976Z,34.30
2023-02-11T06:34:52.030Z,35.17
2023-02-11T06:37:20.761Z,34.57
2023-02-11T06:39:50.625Z,32.30
2023-02-11T06:42:19.033Z,34.87
2023-02-11T06:44:47.556Z,34.90
2023-02-11T06:47:16.166Z,37.10
2023-02-11T06:49:44.807Z,33.90
2023-02-11T06:52:13.277Z,34.30
2023-02-11T06:54:41.744Z,34.83
2023-02-11T06:57:11.405Z,33.70
2023-02-11T06:59:39.840Z,35.13
2023-02-11T07:02:10.052Z,34.43
2023-02-11T07:04:38.496Z,37.57
2023-02-11T07:07:07.080Z,34.77
2023-02-11T07:09:35.662Z,39.23
2023-02-11T07:12:04.027Z,37.97
2023-02-11T07:14:33.907Z,34.70
2023-02-11T07:17:04.048Z,38.17
2023-02-11T07:19:32.722Z,44.60
2023-02-11T07:22:07.348Z,46.07
2023-02-11T07:24:36.342Z,43.53
2023-02-11T07:27:08.013Z,41.83
2023-02-11T07:29:38.572Z,40.97
2023-02-11T07:32:08.450Z,37.53
2023-02-11T07:34:37.671Z,39.10
2023-02-11T07:37:07.679Z,42.67
2023-02-11T07:39:36.768Z,41.87
2023-02-11T07:42:07.668Z,38.40
2023-02-11T07:44:38.469Z,37.07
2023-02-11T07:47:07.615Z,37.50
2023-02-11T07:49:36.709Z,35.63
2023-02-11T07:52:06.106Z,38.23
2023-02-11T07:54:50.544Z,34.73
2023-02-11T07:57:19.686Z,37.80
2023-02-11T07:59:50.088Z,34.87
2023-02-11T08:02:18.661Z,34.80
2023-02-11T08:04:48.753Z,34.30
2023-02-11T08:07:21.927Z,38.60
2023-02-11T08:09:51.509Z,34.90
2023-02-11T08:12:20.694Z,36.60
2023-02-11T08:14:51.503Z,37.37
2023-02-11T08:17:20.174Z,38.03
2023-02-11T08:19:49.382Z,39.93
2023-02-11T08:22:18.483Z,35.23
2023-02-11T08:24:47.526Z,37.80
2023-02-11T08:27:16.891Z,42.53
2023-02-11T08:29:46.088Z,40.43
2023-02-11T08:32:16.378Z,42.10
2023-02-11T08:34:45.262Z,38.50
2023-02-11T08:37:13.695Z,39.57
2023-02-11T08:39:42.445Z,39.07
2023-02-11T08:42:11.346Z,41.17
2023-02-11T08:44:40.459Z,43.43
2023-02-11T08:47:09.378Z,48.43
2023-02-11T08:49:41.448Z,45.57
2023-02-11T08:52:10.626Z,45.37
2023-02-11T08:54:39.387Z,45.80
2023-02-11T08:57:07.938Z,43.03
2023-02-11T08:59:37.420Z,48.13
2023-02-11T09:02:09.588Z,43.10
2023-02-11T09:04:40.318Z,48.37
2023-02-11T09:07:09.254Z,40.40
2023-02-11T09:09:38.551Z,44.27
2023-02-11T09:12:08.035Z,36.87
2023-02-11T09:14:37.527Z,37.47
2023-02-11T09:17:06.907Z,38.97
2023-02-11T09:19:35.952Z,38.53
2023-02-11T09:22:05.734Z,37.00
2023-02-11T09:24:38.641Z,39.60
2023-02-11T09:27:07.662Z,38.17
2023-02-11T09:29:37.415Z,39.57
2023-02-11T09:32:09.690Z,37.50
2023-02-11T09:34:39.006Z,38.07
2023-02-11T09:37:09.359Z,35.43
2023-02-11T09:39:42.239Z,38.77
2023-02-11T09:42:44.849Z,32.67
2023-02-11T09:45:20.279Z,40.80
2023-02-11T09:47:51.907Z,38.80
2023-02-11T09:50:26.685Z,41.03
2023-02-11T09:53:01.156Z,39.30
2023-02-11T09:55:34.240Z,40.73
2023-02-11T09:58:04.283Z,39.23
2023-02-11T10:00:38.961Z,42.83
2023-02-11T10:03:35.131Z,38.30
2023-02-11T10:06:15.290Z,38.27
2023-02-11T10:08:53.809Z,40.43
2023-02-11T10:11:32.431Z,34.97
2023-02-11T10:14:13.292Z,37.27
2023-02-11T10:16:56.894Z,36.83
2023-02-11T10:19:39.721Z,34.17
2023-02-11T10:22:15.302Z,37.70
2023-02-11T10:24:52.233Z,34.00
2023-02-11T10:27:25.649Z,33.93
2023-02-11T10:29:58.213Z,36.50
2023-02-11T10:32:33.991Z,36.47
2023-02-11T10:35:10.765Z,35.73
2023-02-11T10:37:42.928Z,35.13
2023-02-11T10:40:16.781Z,38.00
2023-02-11T10:42:49.459Z,38.80
2023-02-11T10:45:25.883Z,35.07
2023-02-11T10:47:55.512Z,36.53
2023-02-11T10:50:27.548Z,35.10
2023-02-11T10:53:13.536Z,38.07
2023-02-11T10:55:51.201Z,34.00
2023-02-11T10:58:27.746Z,40.13
2023-02-11T11:00:58.070Z,47.37
2023-02-11T11:03:28.431Z,48.23
2023-02-11T11:05:58.861Z,43.93
2023-02-11T11:08:40.603Z,40.53
2023-02-11T11:11:13.221Z,37.07
2023-02-11T11:13:43.560Z,33.23
2023-02-11T11:16:22.401Z,34.87
2023-02-11T11:18:53.631Z,33.07
2023-02-11T11:21:25.541Z,32.73
2023-02-11T11:23:57.100Z,32.73
2023-02-11T11:26:29.351Z,28.83
2023-02-11T11:29:02.241Z,27.63
2023-02-11T11:31:35.495Z,25.77
2023-02-11T11:34:17.837Z,26.87
2023-02-11T11:36:46.720Z,24.33
2023-02-11T11:39:22.532Z,22.63
2023-02-11T11:41:58.582Z,24.07
2023-02-11T11:44:30.291Z,22.50
2023-02-11T11:47:22.077Z,24.63
2023-02-11T11:49:56.838Z,24.50
2023-02-11T11:52:38.716Z,24.03
2023-02-11T11:55:16.904Z,23.27
2023-02-11T11:57:47.765Z,20.83
2023-02-11T12:00:20.556Z,18.97
2023-02-11T12:03:10.805Z,24.27
2023-02-11T12:05:46.000Z,21.27
2023-02-11T12:08:25.024Z,24.87
2023-02-11T12:11:03.719Z,20.37
2023-02-11T12:13:44.200Z,21.40
2023-02-11T12:16:21.380Z,21.60
2023-02-11T12:19:24.806Z,19.57
2023-02-11T12:22:02.282Z,19.93
2023-02-11T12:24:57.429Z,16.37
2023-02-11T12:27:40.364Z,15.30
2023-02-11T12:30:22.144Z,16.73
2023-02-11T12:32:57.945Z,16.40
2023-02-11T12:35:36.457Z,14.87
2023-02-11T12:38:22.841Z,15.17
2023-02-11T12:41:07.336Z,16.13
2023-02-11T12:43:37.876Z,14.20
2023-02-11T12:46:32.996Z,15.73
2023-02-11T12:49:19.606Z,17.03
2023-02-11T12:52:13.087Z,15.73
2023-02-11T12:54:45.480Z,18.63
2023-02-11T12:57:19.234Z,16.10
2023-02-11T12:59:57.334Z,14.47
2023-02-11T13:02:35.874Z,16.37
2023-02-11T13:05:14.401Z,15.83
2023-02-11T13:07:47.045Z,15.43
2023-02-11T13:10:27.839Z,17.67
2023-02-11T13:13:15.604Z,16.90
2023-02-11T13:15:51.486Z,18.97
2023-02-11T13:18:35.813Z,19.73
2023-02-11T13:21:26.566Z,17.30
2023-02-11T13:24:02.885Z,17.33
2023-02-11T13:26:41.951Z,20.73
2023-02-11T13:29:24.950Z,18.90
2023-02-11T13:31:57.581Z,18.87
2023-02-11T13:35:00.424Z,18.17
2023-02-11T13:37:33.935Z,21.77
2023-02-11T13:40:05.989Z,20.80
2023-02-11T13:42:46.365Z,37.43
2023-02-11T13:45:19.462Z,29.10
2023-02-11T13:47:52.360Z,36.47
2023-02-11T13:50:25.778Z,32.33
2023-02-11T13:52:59.690Z,45.10
2023-02-11T13:55:30.085Z,36.13
2023-02-11T13:58:19.594Z,37.73
2023-02-11T14:00:50.996Z,31.50
2023-02-11T14:03:53.271Z,27.07
2023-02-11T14:07:00.328Z,26.67
2023-02-11T14:09:40.658Z,26.07
2023-02-11T14:12:32.161Z,28.30
2023-02-11T14:15:06.042Z,25.80
2023-02-11T14:17:36.397Z,26.23
2023-02-11T14:20:26.253Z,25.00
2023-02-11T14:22:57.655Z,21.30
2023-02-11T14:25:27.393Z,25.20
2023-02-11T14:28:05.290Z,19.87
2023-02-11T14:30:46.003Z,22.87
2023-02-11T14:33:44.361Z,21.23
2023-02-11T14:36:46.620Z,21.93
2023-02-11T14:39:27.579Z,21.43
2023-02-11T14:41:56.331Z,25.27
2023-02-11T14:44:28.096Z,23.63
2023-02-11T14:46:58.173Z,21.53
2023-02-11T14:49:29.380Z,24.60
2023-02-11T14:52:01.583Z,23.47
2023-02-11T14:54:31.968Z,21.10
2023-02-11T14:57:08.928Z,19.30
2023-02-11T14:59:38.789Z,17.70
2023-02-11T15:02:21.969Z,17.37
2023-02-11T15:04:50.317Z,16.73
2023-02-11T15:07:19.608Z,15.53
2023-02-11T15:09:52.217Z,15.00
2023-02-11T15:12:25.178Z,14.87
2023-02-11T15:14:56.523Z,16.80
2023-02-11T15:17:30.634Z,18.53
2023-02-11T15:20:02.606Z,17.57
2023-02-11T15:22:36.803Z,15.80
2023-02-11T15:25:12.404Z,16.37
2023-02-11T15:27:41.648Z,15.97
2023-02-11T15:30:27.173Z,15.80
2023-02-11T15:33:00.126Z,16.40
2023-02-11T15:35:31.008Z,13.87
2023-02-11T15:38:00.581Z,14.37
2023-02-11T15:40:33.384Z,21.37
2023-02-11T15:43:03.847Z,19.80
2023-02-11T15:45:34.176Z,20.83
2023-02-11T15:48:12.182Z,19.83
2023-02-11T15:50:42.935Z,21.40
2023-02-11T15:53:27.701Z,20.23
2023-02-11T15:56:04.624Z,19.23
2023-02-11T15:58:38.469Z,17.60
2023-02-11T16:01:07.800Z,20.60
2023-02-11T16:03:36.425Z,19.07
2023-02-11T16:06:20.332Z,18.70
2023-02-11T16:09:00.160Z,18.23
2023-02-11T16:11:32.468Z,19.63
2023-02-11T16:14:04.130Z,23.80
2023-02-11T16:16:35.747Z,20.07
2023-02-11T16:19:06.635Z,17.50
2023-02-11T16:21:42.447Z,19.60
2023-02-11T16:24:21.556Z,19.70
2023-02-11T16:26:54.256Z,19.07
2023-02-11T16:29:27.454Z,20.80
2023-02-11T16:32:07.541Z,21.20
2023-02-11T16:34:37.701Z,19.07
2023-02-11T16:37:06.602Z,19.37
2023-02-11T16:39:35.481Z,19.07
2023-02-11T16:42:07.592Z,19.20
2023-02-11T16:44:36.740Z,19.80
2023-02-11T16:47:08.045Z,18.50
2023-02-11T16:49:39.296Z,21.27
2023-02-11T16:52:12.962Z,19.37
2023-02-11T16:54:41.248Z,17.13
2023-02-11T16:57:15.864Z,22.87
2023-02-11T16:59:44.310Z,22.53
2023-02-11T17:02:16.398Z,21.23
2023-02-11T17:04:45.536Z,21.73
2023-02-11T17:07:14.213Z,29.03
2023-02-11T17:09:42.901Z,22.97
2023-02-11T17:12:13.331Z,28.10
2023-02-11T17:14:41.917Z,26.33
2023-02-11T17:17:10.815Z,25.07
2023-02-11T17:19:42.177Z,21.43
2023-02-11T17:22:12.057Z,27.37
2023-02-11T17:24:40.450Z,23.60
2023-02-11T17:27:08.873Z,22.87
2023-02-11T17:29:38.541Z,20.70
2023-02-11T17:32:07.993Z,20.43
2023-02-11T17:34:36.419Z,18.70
2023-02-11T17:37:09.423Z,18.57
2023-02-11T17:39:39.765Z,20.57
2023-02-11T17:42:09.247Z,18.13
2023-02-11T17:44:39.744Z,20.37
2023-02-11T17:47:08.636Z,21.00
2023-02-11T17:49:40.411Z,22.87
2023-02-11T17:52:09.407Z,19.40
2023-02-11T17:54:39.825Z,17.83
2023-02-11T17:57:09.014Z,16.93
2023-02-11T17:59:39.382Z,16.93
2023-02-11T18:02:12.054Z,23.30
2023-02-11T18:04:41.756Z,23.83
2023-02-11T18:07:10.579Z,20.87
2023-02-11T18:09:40.703Z,19.67
2023-02-11T18:12:12.284Z,20.73
2023-02-11T18:14:42.248Z,20.37
2023-02-11T18:17:13.828Z,18.63
2023-02-11T18:19:43.042Z,19.07
2023-02-11T18:22:11.653Z,19.50
2023-02-11T18:24:41.994Z,18.23
2023-02-11T18:27:11.194Z,19.63
2023-02-11T18:29:41.127Z,17.97
2023-02-11T18:32:09.732Z,18.30
2023-02-11T18:34:38.725Z,18.87
2023-02-11T18:37:11.601Z,21.63
2023-02-11T18:39:40.407Z,19.63
2023-02-11T18:42:09.546Z,18.70
2023-02-11T18:44:39.077Z,19.10
2023-02-11T18:47:10.150Z,19.33
2023-02-11T18:49:39.182Z,17.17
2023-02-11T18:52:07.389Z,19.33
2023-02-11T18:54:36.056Z,20.77
2023-02-11T18:57:04.498Z,18.93
2023-02-11T18:59:33.018Z,18.63
2023-02-11T19:02:05.094Z,18.67
2023-02-11T19:04:37.327Z,20.97
2023-02-11T19:07:05.712Z,18.20
2023-02-11T19:09:33.971Z,19.10
2023-02-11T19:12:02.470Z,18.10
2023-02-11T19:14:33.571Z,16.50
2023-02-11T19:17:03.885Z,16.47
2023-02-11T19:19:35.496Z,20.03
2023-02-11T19:22:08.496Z,18.10
2023-02-11T19:24:38.695Z,18.37
2023-02-11T19:27:07.139Z,19.27
2023-02-11T19:29:41.092Z,18.87
2023-02-11T19:32:09.383Z,18.50
2023-02-11T19:34:42.342Z,17.93
2023-02-11T19:37:12.750Z,20.37
2023-02-11T19:39:41.632Z,21.60
2023-02-11T19:42:09.893Z,18.10
2023-02-11T19:44:38.273Z,17.03
2023-02-11T19:47:07.671Z,18.70
2023-02-11T19:49:35.907Z,20.90
2023-02-11T19:52:06.084Z,18.00
2023-02-11T19:54:34.686Z,17.77
2023-02-11T19:57:02.932Z,15.23
2023-02-11T19:59:31.497Z,17.27
2023-02-11T20:02:01.439Z,17.57
2023-02-11T20:04:32.086Z,20.47
2023-02-11T20:07:00.401Z,17.53
2023-02-11T20:09:31.299Z,18.57
2023-02-11T20:12:00.191Z,15.03
2023-02-11T20:14:28.521Z,16.97
2023-02-11T20:16:57.098Z,17.37
2023-02-11T20:19:25.795Z,13.97
2023-02-11T20:21:56.002Z,14.97
2023-02-11T20:24:26.213Z,16.40
2023-02-11T20:26:58.295Z,14.33
2023-02-11T20:29:27.588Z,15.97
2023-02-11T20:31:56.207Z,15.90
2023-02-11T20:34:25.608Z,15.67
2023-02-11T20:36:54.831Z,16.53
2023-02-11T20:39:24.262Z,17.17
2023-02-11T20:41:53.834Z,16.30
2023-02-11T20:44:24.511Z,17.53
2023-02-11T20:46:54.759Z,15.47
2023-02-11T20:49:25.270Z,19.97
2023-02-11T20:51:54.403Z,15.60
2023-02-11T20:54:23.859Z,16.40
2023-02-11T20:56:53.930Z,17.43
2023-02-11T20:59:24.864Z,18.83
2023-02-11T21:01:55.564Z,16.97
2023-02-11T21:04:26.974Z,17.77
2023-02-11T21:06:58.538Z,17.20
2023-02-11T21:09:29.438Z,16.40
2023-02-11T21:11:58.043Z,19.97
2023-02-11T21:14:30.038Z,14.97
2023-02-11T21:16:59.143Z,16.33
2023-02-11T21:19:30.808Z,19.87
2023-02-11T21:22:02.123Z,15.97
2023-02-11T21:24:30.858Z,16.70
2023-02-11T21:26:59.556Z,14.60
2023-02-11T21:29:29.848Z,16.13
2023-02-11T21:31:59.591Z,14.33
2023-02-11T21:34:28.400Z,17.47
2023-02-11T21:36:57.217Z,16.07
2023-02-11T21:39:25.414Z,19.00
2023-02-11T21:41:55.772Z,18.00
2023-02-11T21:44:24.082Z,16.10
2023-02-11T21:46:53.847Z,16.00
2023-02-11T21:49:22.894Z,17.73
2023-02-11T21:51:51.416Z,17.43
2023-02-11T21:54:20.127Z,16.60
2023-02-11T21:56:51.784Z,17.73
2023-02-11T21:59:20.553Z,14.50
2023-02-11T22:01:50.405Z,16.83
2023-02-11T22:04:20.129Z,16.53
2023-02-11T22:06:48.790Z,17.93
2023-02-11T22:09:18.018Z,16.50
2023-02-11T22:11:46.662Z,15.80
2023-02-11T22:14:15.248Z,17.13
2023-02-11T22:16:45.982Z,15.40
2023-02-11T22:19:14.617Z,16.60
2023-02-11T22:21:44.377Z,16.00
2023-02-11T22:24:12.557Z,16.10
2023-02-11T22:26:41.377Z,15.07
2023-02-11T22:29:13.034Z,14.93
2023-02-11T22:31:41.559Z,14.20
2023-02-11T22:34:10.432Z,15.63
2023-02-11T22:36:41.040Z,16.67
2023-02-11T22:39:14.053Z,15.27
2023-02-11T22:41:43.522Z,17.00
2023-02-11T22:44:11.983Z,14.13
2023-02-11T22:46:40.941Z,15.00
2023-02-11T22:49:09.212Z,16.07
2023-02-11T22:51:38.590Z,14.37
2023-02-11T22:54:08.988Z,16.47
2023-02-11T22:56:39.702Z,15.63
2023-02-11T22:59:12.101Z,19.50
2023-02-11T23:01:40.866Z,17.60
2023-02-11T23:04:12.377Z,16.37
2023-02-11T23:06:41.301Z,16.33
2023-02-11T23:09:12.227Z,16.77
2023-02-11T23:11:42.349Z,16.40
2023-02-11T23:14:12.196Z,16.73
2023-02-11T23:16:40.801Z,15.53
2023-02-11T23:19:10.063Z,14.60
2023-02-11T23:21:40.199Z,14.77
2023-02-11T23:24:12.625Z,14.73
2023-02-11T23:26:44.584Z,16.60
2023-02-11T23:29:13.835Z,13.93
2023-02-11T23:31:46.750Z,15.97
2023-02-11T23:34:17.154Z,13.93
2023-02-11T23:36:46.834Z,15.93
2023-02-11T23:39:55.704Z,16.80
2023-02-11T23:42:26.049Z,15.17
2023-02-11T23:45:09.513Z,16.07
2023-02-11T23:47:40.090Z,15.23
2023-02-11T23:50:10.069Z,15.53
2023-02-11T23:52:39.492Z,13.57
2023-02-11T23:55:08.271Z,16.33
2023-02-11T23:57:38.690Z,16.50
